sensor_id;sensor_type;location;lat;lon;timestamp;P1;durP1;ratioP1;P2;durP2;ratioP2
3591;SDS011;1810;48.720;9.094;2023-04-24T00:02:03;688.47;;;648.83;;
3591;SDS011;1810;48.720;9.094;2023-04-24T00:04:33;703.00;;;662.08;;
3591;SDS011;1810;48.720;9.094;2023-04-24T00:07:02;684.55;;;644.53;;
3591;SDS011;1810;48.720;9.094;2023-04-24T00:09:30;666.75;;;628.05;;
3591;SDS011;1810;48.720;9.094;2023-04-24T00:11:58;671.40;;;632.72;;
3591;SDS011;1810;48.720;9.094;2023-04-24T00:14:28;704.85;;;663.60;;
3591;SDS011;1810;48.720;9.094;2023-04-24T00:16:57;696.05;;;655.67;;
3591;SDS011;1810;48.720;9.094;2023-04-24T00:19:27;700.85;;;658.95;;
3591;SDS011;1810;48.720;9.094;2023-04-24T00:21:55;693.55;;;652.83;;
3591;SDS011;1810;48.720;9.094;2023-04-24T00:24:23;704.65;;;662.65;;
3591;SDS011;1810;48.720;9.094;2023-04-24T00:26:52;673.13;;;634.85;;
3591;SDS011;1810;48.720;9.094;2023-04-24T00:29:20;683.65;;;643.95;;
3591;SDS011;1810;48.720;9.094;2023-04-24T00:31:49;686.20;;;645.70;;
3591;SDS011;1810;48.720;9.094;2023-04-24T00:34:17;690.03;;;650.05;;
3591;SDS011;1810;48.720;9.094;2023-04-24T00:36:47;722.08;;;678.88;;
3591;SDS011;1810;48.720;9.094;2023-04-24T00:39:18;696.17;;;656.00;;
3591;SDS011;1810;48.720;9.094;2023-04-24T00:41:46;670.15;;;631.47;;
3591;SDS011;1810;48.720;9.094;2023-04-24T00:44:17;678.70;;;639.70;;
3591;SDS011;1810;48.720;9.094;2023-04-24T00:46:45;672.90;;;634.05;;
3591;SDS011;1810;48.720;9.094;2023-04-24T00:49:18;683.00;;;643.47;;
3591;SDS011;1810;48.720;9.094;2023-04-24T00:51:47;675.75;;;636.63;;
3591;SDS011;1810;48.720;9.094;2023-04-24T00:54:17;695.55;;;655.05;;
3591;SDS011;1810;48.720;9.094;2023-04-24T00:56:46;681.75;;;641.70;;
3591;SDS011;1810;48.720;9.094;2023-04-24T00:59:15;695.80;;;654.88;;
3591;SDS011;1810;48.720;9.094;2023-04-24T01:01:44;705.47;;;663.47;;
3591;SDS011;1810;48.720;9.094;2023-04-24T01:04:12;712.85;;;670.30;;
3591;SDS011;1810;48.720;9.094;2023-04-24T01:06:41;723.13;;;679.20;;
3591;SDS011;1810;48.720;9.094;2023-04-24T01:09:12;699.92;;;658.83;;
3591;SDS011;1810;48.720;9.094;2023-04-24T01:11:41;710.50;;;668.47;;
3591;SDS011;1810;48.720;9.094;2023-04-24T01:14:10;707.15;;;664.85;;
3591;SDS011;1810;48.720;9.094;2023-04-24T01:16:38;672.33;;;633.65;;
3591;SDS011;1810;48.720;9.094;2023-04-24T01:19:07;682.05;;;641.78;;
3591;SDS011;1810;48.720;9.094;2023-04-24T01:21:37;708.55;;;665.90;;
3591;SDS011;1810;48.720;9.094;2023-04-24T01:24:08;682.67;;;643.45;;
3591;SDS011;1810;48.720;9.094;2023-04-24T01:26:36;695.42;;;655.28;;
3591;SDS011;1810;48.720;9.094;2023-04-24T01:29:04;714.38;;;671.50;;
3591;SDS011;1810;48.720;9.094;2023-04-24T01:31:33;705.72;;;664.22;;
3591;SDS011;1810;48.720;9.094;2023-04-24T01:34:02;703.50;;;662.55;;
3591;SDS011;1810;48.720;9.094;2023-04-24T01:36:30;701.40;;;659.97;;
3591;SDS011;1810;48.720;9.094;2023-04-24T01:38:59;687.97;;;647.13;;
3591;SDS011;1810;48.720;9.094;2023-04-24T01:41:30;706.42;;;664.53;;
3591;SDS011;1810;48.720;9.094;2023-04-24T01:43:58;693.55;;;653.05;;
3591;SDS011;1810;48.720;9.094;2023-04-24T01:46:27;711.08;;;668.85;;
3591;SDS011;1810;48.720;9.094;2023-04-24T01:48:57;706.42;;;664.35;;
3591;SDS011;1810;48.720;9.094;2023-04-24T01:51:27;692.47;;;651.72;;
3591;SDS011;1810;48.720;9.094;2023-04-24T01:53:56;699.78;;;658.33;;
3591;SDS011;1810;48.720;9.094;2023-04-24T01:56:24;703.40;;;661.63;;
3591;SDS011;1810;48.720;9.094;2023-04-24T01:58:54;700.05;;;659.15;;
3591;SDS011;1810;48.720;9.094;2023-04-24T02:01:23;682.85;;;643.22;;
3591;SDS011;1810;48.720;9.094;2023-04-24T02:03:52;687.95;;;647.58;;
3591;SDS011;1810;48.720;9.094;2023-04-24T02:06:20;708.90;;;666.83;;
3591;SDS011;1810;48.720;9.094;2023-04-24T02:08:49;690.13;;;649.40;;
3591;SDS011;1810;48.720;9.094;2023-04-24T02:11:18;696.53;;;655.72;;
3591;SDS011;1810;48.720;9.094;2023-04-24T02:13:46;682.85;;;642.60;;
3591;SDS011;1810;48.720;9.094;2023-04-24T02:16:16;700.85;;;659.67;;
3591;SDS011;1810;48.720;9.094;2023-04-24T02:18:45;690.92;;;650.67;;
3591;SDS011;1810;48.720;9.094;2023-04-24T02:21:13;706.33;;;664.83;;
3591;SDS011;1810;48.720;9.094;2023-04-24T02:23:42;687.20;;;647.30;;
3591;SDS011;1810;48.720;9.094;2023-04-24T02:26:10;695.50;;;655.20;;
3591;SDS011;1810;48.720;9.094;2023-04-24T02:28:39;700.08;;;659.50;;
3591;SDS011;1810;48.720;9.094;2023-04-24T02:31:07;683.38;;;644.20;;
3591;SDS011;1810;48.720;9.094;2023-04-24T02:33:37;700.85;;;659.92;;
3591;SDS011;1810;48.720;9.094;2023-04-24T02:36:05;678.70;;;639.70;;
3591;SDS011;1810;48.720;9.094;2023-04-24T02:38:34;699.40;;;658.63;;
3591;SDS011;1810;48.720;9.094;2023-04-24T02:41:02;695.92;;;655.05;;
3591;SDS011;1810;48.720;9.094;2023-04-24T02:43:32;705.88;;;664.25;;
3591;SDS011;1810;48.720;9.094;2023-04-24T02:46:00;699.10;;;658.22;;
3591;SDS011;1810;48.720;9.094;2023-04-24T02:48:29;689.40;;;648.88;;
3591;SDS011;1810;48.720;9.094;2023-04-24T02:50:59;705.97;;;664.70;;
3591;SDS011;1810;48.720;9.094;2023-04-24T02:53:27;698.15;;;657.63;;
3591;SDS011;1810;48.720;9.094;2023-04-24T02:55:57;694.35;;;653.20;;
3591;SDS011;1810;48.720;9.094;2023-04-24T02:58:25;703.05;;;661.85;;
3591;SDS011;1810;48.720;9.094;2023-04-24T03:00:53;693.90;;;652.75;;
3591;SDS011;1810;48.720;9.094;2023-04-24T03:03:22;687.83;;;647.53;;
3591;SDS011;1810;48.720;9.094;2023-04-24T03:05:51;695.90;;;656.08;;
3591;SDS011;1810;48.720;9.094;2023-04-24T03:08:21;705.90;;;664.83;;
3591;SDS011;1810;48.720;9.094;2023-04-24T03:10:49;692.55;;;653.13;;
3591;SDS011;1810;48.720;9.094;2023-04-24T03:13:18;674.38;;;635.38;;
3591;SDS011;1810;48.720;9.094;2023-04-24T03:15:46;684.63;;;644.95;;
3591;SDS011;1810;48.720;9.094;2023-04-24T03:18:15;688.83;;;649.03;;
3591;SDS011;1810;48.720;9.094;2023-04-24T03:20:45;697.05;;;656.55;;
3591;SDS011;1810;48.720;9.094;2023-04-24T03:23:13;705.35;;;664.13;;
3591;SDS011;1810;48.720;9.094;2023-04-24T03:25:43;706.95;;;665.15;;
3591;SDS011;1810;48.720;9.094;2023-04-24T03:28:12;701.95;;;660.65;;
3591;SDS011;1810;48.720;9.094;2023-04-24T03:30:40;685.20;;;645.17;;
3591;SDS011;1810;48.720;9.094;2023-04-24T03:33:08;694.95;;;654.70;;
3591;SDS011;1810;48.720;9.094;2023-04-24T03:35:37;712.03;;;669.40;;
3591;SDS011;1810;48.720;9.094;2023-04-24T03:38:05;704.28;;;662.63;;
3591;SDS011;1810;48.720;9.094;2023-04-24T03:40:34;741.42;;;696.35;;
3591;SDS011;1810;48.720;9.094;2023-04-24T03:43:04;717.20;;;674.63;;
3591;SDS011;1810;48.720;9.094;2023-04-24T03:45:32;719.30;;;676.42;;
3591;SDS011;1810;48.720;9.094;2023-04-24T03:48:00;685.53;;;645.88;;
3591;SDS011;1810;48.720;9.094;2023-04-24T03:50:29;699.70;;;658.97;;
3591;SDS011;1810;48.720;9.094;2023-04-24T03:52:57;709.03;;;666.97;;
3591;SDS011;1810;48.720;9.094;2023-04-24T03:55:26;712.22;;;670.17;;
3591;SDS011;1810;48.720;9.094;2023-04-24T03:57:54;707.45;;;666.20;;
3591;SDS011;1810;48.720;9.094;2023-04-24T04:00:24;705.22;;;663.70;;
3591;SDS011;1810;48.720;9.094;2023-04-24T04:02:53;687.05;;;647.38;;
3591;SDS011;1810;48.720;9.094;2023-04-24T04:05:24;732.10;;;688.38;;
3591;SDS011;1810;48.720;9.094;2023-04-24T04:07:52;713.13;;;670.65;;
3591;SDS011;1810;48.720;9.094;2023-04-24T04:10:21;705.20;;;663.88;;
3591;SDS011;1810;48.720;9.094;2023-04-24T04:12:49;700.83;;;659.25;;
3591;SDS011;1810;48.720;9.094;2023-04-24T04:15:18;726.05;;;682.55;;
3591;SDS011;1810;48.720;9.094;2023-04-24T04:17:47;700.45;;;659.22;;
3591;SDS011;1810;48.720;9.094;2023-04-24T04:20:16;710.38;;;667.47;;
3591;SDS011;1810;48.720;9.094;2023-04-24T04:22:44;688.88;;;648.80;;
3591;SDS011;1810;48.720;9.094;2023-04-24T04:25:12;721.00;;;677.83;;
3591;SDS011;1810;48.720;9.094;2023-04-24T04:27:41;735.95;;;691.42;;
3591;SDS011;1810;48.720;9.094;2023-04-24T04:30:09;701.95;;;660.42;;
3591;SDS011;1810;48.720;9.094;2023-04-24T04:32:38;710.78;;;668.72;;
3591;SDS011;1810;48.720;9.094;2023-04-24T04:35:08;723.03;;;679.22;;
3591;SDS011;1810;48.720;9.094;2023-04-24T04:37:37;711.72;;;669.80;;
3591;SDS011;1810;48.720;9.094;2023-04-24T04:40:06;750.72;;;704.72;;
3591;SDS011;1810;48.720;9.094;2023-04-24T04:42:38;725.45;;;681.55;;
3591;SDS011;1810;48.720;9.094;2023-04-24T04:45:07;685.40;;;645.13;;
3591;SDS011;1810;48.720;9.094;2023-04-24T04:47:37;709.50;;;667.30;;
3591;SDS011;1810;48.720;9.094;2023-04-24T04:50:06;714.25;;;671.72;;
3591;SDS011;1810;48.720;9.094;2023-04-24T04:52:37;722.25;;;678.92;;
3591;SDS011;1810;48.720;9.094;2023-04-24T04:55:06;708.92;;;666.80;;
3591;SDS011;1810;48.720;9.094;2023-04-24T04:57:35;712.03;;;669.35;;
3591;SDS011;1810;48.720;9.094;2023-04-24T05:00:04;801.42;;;746.92;;
3591;SDS011;1810;48.720;9.094;2023-04-24T05:02:36;708.30;;;666.15;;
3591;SDS011;1810;48.720;9.094;2023-04-24T05:05:05;698.50;;;657.08;;
3591;SDS011;1810;48.720;9.094;2023-04-24T05:07:36;711.42;;;668.90;;
3591;SDS011;1810;48.720;9.094;2023-04-24T05:10:05;705.72;;;663.55;;
3591;SDS011;1810;48.720;9.094;2023-04-24T05:12:34;701.17;;;660.10;;
3591;SDS011;1810;48.720;9.094;2023-04-24T05:15:03;777.97;;;728.90;;
3591;SDS011;1810;48.720;9.094;2023-04-24T05:17:32;710.28;;;668.17;;
3591;SDS011;1810;48.720;9.094;2023-04-24T05:20:00;751.30;;;704.90;;
3591;SDS011;1810;48.720;9.094;2023-04-24T05:22:31;789.38;;;738.78;;
3591;SDS011;1810;48.720;9.094;2023-04-24T05:25:01;703.83;;;662.58;;
3591;SDS011;1810;48.720;9.094;2023-04-24T05:27:29;710.63;;;669.00;;
3591;SDS011;1810;48.720;9.094;2023-04-24T05:29:58;704.08;;;662.58;;
3591;SDS011;1810;48.720;9.094;2023-04-24T05:32:26;715.33;;;672.30;;
3591;SDS011;1810;48.720;9.094;2023-04-24T05:34:55;749.85;;;703.97;;
3591;SDS011;1810;48.720;9.094;2023-04-24T05:37:23;703.42;;;661.58;;
3591;SDS011;1810;48.720;9.094;2023-04-24T05:39:51;785.70;;;734.55;;
3591;SDS011;1810;48.720;9.094;2023-04-24T05:42:21;711.58;;;669.30;;
3591;SDS011;1810;48.720;9.094;2023-04-24T05:44:50;887.40;;;823.45;;
3591;SDS011;1810;48.720;9.094;2023-04-24T05:47:23;710.47;;;667.88;;
3591;SDS011;1810;48.720;9.094;2023-04-24T05:49:52;783.15;;;733.35;;
3591;SDS011;1810;48.720;9.094;2023-04-24T05:52:20;780.50;;;729.50;;
3591;SDS011;1810;48.720;9.094;2023-04-24T05:54:49;715.03;;;672.05;;
3591;SDS011;1810;48.720;9.094;2023-04-24T05:57:17;684.63;;;644.60;;
3591;SDS011;1810;48.720;9.094;2023-04-24T05:59:47;689.63;;;649.38;;
3591;SDS011;1810;48.720;9.094;2023-04-24T06:02:16;716.55;;;673.60;;
3591;SDS011;1810;48.720;9.094;2023-04-24T06:04:45;759.00;;;710.85;;
3591;SDS011;1810;48.720;9.094;2023-04-24T06:07:14;713.40;;;671.03;;
3591;SDS011;1810;48.720;9.094;2023-04-24T06:09:42;741.80;;;695.70;;
3591;SDS011;1810;48.720;9.094;2023-04-24T06:12:11;749.58;;;703.60;;
3591;SDS011;1810;48.720;9.094;2023-04-24T06:14:39;708.13;;;665.88;;
3591;SDS011;1810;48.720;9.094;2023-04-24T06:17:09;702.88;;;661.40;;
3591;SDS011;1810;48.720;9.094;2023-04-24T06:19:37;737.35;;;692.55;;
3591;SDS011;1810;48.720;9.094;2023-04-24T06:22:06;800.10;;;749.10;;
3591;SDS011;1810;48.720;9.094;2023-04-24T06:24:36;766.83;;;718.42;;
3591;SDS011;1810;48.720;9.094;2023-04-24T06:27:04;624.42;;;590.40;;
3591;SDS011;1810;48.720;9.094;2023-04-24T06:29:33;733.60;;;689.45;;
3591;SDS011;1810;48.720;9.094;2023-04-24T06:32:02;649.80;;;613.08;;
3591;SDS011;1810;48.720;9.094;2023-04-24T06:34:32;562.83;;;533.65;;
3591;SDS011;1810;48.720;9.094;2023-04-24T06:37:01;603.53;;;571.53;;
3591;SDS011;1810;48.720;9.094;2023-04-24T06:39:30;604.75;;;572.70;;
3591;SDS011;1810;48.720;9.094;2023-04-24T06:41:58;654.58;;;618.10;;
3591;SDS011;1810;48.720;9.094;2023-04-24T06:44:26;623.25;;;588.72;;
3591;SDS011;1810;48.720;9.094;2023-04-24T06:46:55;676.92;;;637.63;;
3591;SDS011;1810;48.720;9.094;2023-04-24T06:49:24;719.75;;;676.67;;
3591;SDS011;1810;48.720;9.094;2023-04-24T06:51:53;624.45;;;589.75;;
3591;SDS011;1810;48.720;9.094;2023-04-24T06:54:22;610.13;;;577.60;;
3591;SDS011;1810;48.720;9.094;2023-04-24T06:56:50;636.15;;;600.08;;
3591;SDS011;1810;48.720;9.094;2023-04-24T06:59:19;626.20;;;591.88;;
3591;SDS011;1810;48.720;9.094;2023-04-24T07:01:47;636.85;;;601.30;;
3591;SDS011;1810;48.720;9.094;2023-04-24T07:04:18;719.95;;;676.92;;
3591;SDS011;1810;48.720;9.094;2023-04-24T07:06:47;680.22;;;641.05;;
3591;SDS011;1810;48.720;9.094;2023-04-24T07:09:18;703.53;;;661.03;;
3591;SDS011;1810;48.720;9.094;2023-04-24T07:11:48;670.55;;;631.58;;
3591;SDS011;1810;48.720;9.094;2023-04-24T07:14:16;684.53;;;644.42;;
3591;SDS011;1810;48.720;9.094;2023-04-24T07:16:45;710.25;;;668.10;;
3591;SDS011;1810;48.720;9.094;2023-04-24T07:19:14;703.65;;;661.95;;
3591;SDS011;1810;48.720;9.094;2023-04-24T07:21:42;634.75;;;600.22;;
3591;SDS011;1810;48.720;9.094;2023-04-24T07:24:11;597.05;;;565.13;;
3591;SDS011;1810;48.720;9.094;2023-04-24T07:26:43;685.35;;;644.30;;
3591;SDS011;1810;48.720;9.094;2023-04-24T07:29:12;628.17;;;594.38;;
3591;SDS011;1810;48.720;9.094;2023-04-24T07:31:41;675.20;;;636.33;;
3591;SDS011;1810;48.720;9.094;2023-04-24T07:34:10;604.88;;;572.80;;
3591;SDS011;1810;48.720;9.094;2023-04-24T07:36:38;651.15;;;614.55;;
3591;SDS011;1810;48.720;9.094;2023-04-24T07:39:07;648.83;;;612.78;;
3591;SDS011;1810;48.720;9.094;2023-04-24T07:41:36;636.60;;;601.88;;
3591;SDS011;1810;48.720;9.094;2023-04-24T07:44:06;654.63;;;618.05;;
3591;SDS011;1810;48.720;9.094;2023-04-24T07:46:34;684.78;;;644.78;;
3591;SDS011;1810;48.720;9.094;2023-04-24T07:49:03;632.92;;;597.92;;
3591;SDS011;1810;48.720;9.094;2023-04-24T07:51:39;692.47;;;651.55;;
3591;SDS011;1810;48.720;9.094;2023-04-24T07:54:08;678.58;;;639.20;;
3591;SDS011;1810;48.720;9.094;2023-04-24T07:56:36;742.17;;;696.70;;
3591;SDS011;1810;48.720;9.094;2023-04-24T07:59:07;714.85;;;672.60;;
3591;SDS011;1810;48.720;9.094;2023-04-24T08:01:36;636.08;;;600.53;;
3591;SDS011;1810;48.720;9.094;2023-04-24T08:04:04;632.80;;;597.30;;
3591;SDS011;1810;48.720;9.094;2023-04-24T08:06:33;663.85;;;625.65;;
3591;SDS011;1810;48.720;9.094;2023-04-24T08:09:02;679.88;;;639.95;;
3591;SDS011;1810;48.720;9.094;2023-04-24T08:11:30;779.20;;;726.50;;
3591;SDS011;1810;48.720;9.094;2023-04-24T08:13:59;604.78;;;572.30;;
3591;SDS011;1810;48.720;9.094;2023-04-24T08:16:29;668.03;;;629.55;;
3591;SDS011;1810;48.720;9.094;2023-04-24T08:18:57;583.92;;;553.28;;
3591;SDS011;1810;48.720;9.094;2023-04-24T08:21:26;531.60;;;505.20;;
3591;SDS011;1810;48.720;9.094;2023-04-24T08:23:54;526.47;;;500.45;;
3591;SDS011;1810;48.720;9.094;2023-04-24T08:26:23;549.72;;;521.92;;
3591;SDS011;1810;48.720;9.094;2023-04-24T08:28:51;533.00;;;506.70;;
3591;SDS011;1810;48.720;9.094;2023-04-24T08:31:20;550.97;;;523.58;;
3591;SDS011;1810;48.720;9.094;2023-04-24T08:33:50;580.03;;;549.72;;
3591;SDS011;1810;48.720;9.094;2023-04-24T08:36:18;520.50;;;494.52;;
3591;SDS011;1810;48.720;9.094;2023-04-24T08:38:48;552.85;;;525.00;;
3591;SDS011;1810;48.720;9.094;2023-04-24T08:41:17;526.58;;;500.60;;
3591;SDS011;1810;48.720;9.094;2023-04-24T08:43:47;756.92;;;706.65;;
3591;SDS011;1810;48.720;9.094;2023-04-24T08:46:17;521.90;;;496.30;;
3591;SDS011;1810;48.720;9.094;2023-04-24T08:48:46;489.33;;;465.80;;
3591;SDS011;1810;48.720;9.094;2023-04-24T08:51:17;612.53;;;579.38;;
3591;SDS011;1810;48.720;9.094;2023-04-24T08:53:46;526.45;;;500.23;;
3591;SDS011;1810;48.720;9.094;2023-04-24T08:56:15;569.15;;;540.00;;
3591;SDS011;1810;48.720;9.094;2023-04-24T08:58:43;575.58;;;545.72;;
3591;SDS011;1810;48.720;9.094;2023-04-24T09:01:12;638.15;;;602.75;;
3591;SDS011;1810;48.720;9.094;2023-04-24T09:03:41;625.97;;;591.63;;
3591;SDS011;1810;48.720;9.094;2023-04-24T09:06:11;617.97;;;583.67;;
3591;SDS011;1810;48.720;9.094;2023-04-24T09:08:39;627.97;;;592.92;;
3591;SDS011;1810;48.720;9.094;2023-04-24T09:11:09;499.08;;;474.42;;
3591;SDS011;1810;48.720;9.094;2023-04-24T09:13:38;565.42;;;535.72;;
3591;SDS011;1810;48.720;9.094;2023-04-24T09:16:06;608.97;;;575.78;;
3591;SDS011;1810;48.720;9.094;2023-04-24T09:18:34;615.67;;;581.95;;
3591;SDS011;1810;48.720;9.094;2023-04-24T09:21:03;670.17;;;631.33;;
3591;SDS011;1810;48.720;9.094;2023-04-24T09:23:35;507.58;;;482.13;;
3591;SDS011;1810;48.720;9.094;2023-04-24T09:26:04;440.67;;;420.48;;
3591;SDS011;1810;48.720;9.094;2023-04-24T09:28:34;487.20;;;463.73;;
3591;SDS011;1810;48.720;9.094;2023-04-24T09:31:04;570.67;;;540.53;;
3591;SDS011;1810;48.720;9.094;2023-04-24T09:33:34;434.98;;;415.13;;
3591;SDS011;1810;48.720;9.094;2023-04-24T09:36:03;378.20;;;362.00;;
3591;SDS011;1810;48.720;9.094;2023-04-24T09:38:33;415.13;;;395.95;;
3591;SDS011;1810;48.720;9.094;2023-04-24T09:41:04;496.83;;;472.58;;
3591;SDS011;1810;48.720;9.094;2023-04-24T09:43:34;450.02;;;429.38;;
3591;SDS011;1810;48.720;9.094;2023-04-24T09:46:04;385.58;;;368.55;;
3591;SDS011;1810;48.720;9.094;2023-04-24T09:48:35;358.88;;;343.40;;
3591;SDS011;1810;48.720;9.094;2023-04-24T09:51:05;389.58;;;372.17;;
3591;SDS011;1810;48.720;9.094;2023-04-24T09:53:38;387.50;;;370.70;;
3591;SDS011;1810;48.720;9.094;2023-04-24T09:56:07;385.30;;;368.27;;
3591;SDS011;1810;48.720;9.094;2023-04-24T09:58:38;424.92;;;405.73;;
3591;SDS011;1810;48.720;9.094;2023-04-24T10:01:07;404.48;;;386.50;;
3591;SDS011;1810;48.720;9.094;2023-04-24T10:03:35;531.72;;;504.63;;
3591;SDS011;1810;48.720;9.094;2023-04-24T10:06:04;384.75;;;367.67;;
3591;SDS011;1810;48.720;9.094;2023-04-24T10:08:35;385.02;;;368.23;;
3591;SDS011;1810;48.720;9.094;2023-04-24T10:11:06;487.30;;;463.95;;
3591;SDS011;1810;48.720;9.094;2023-04-24T10:13:37;461.23;;;438.67;;
3591;SDS011;1810;48.720;9.094;2023-04-24T10:16:06;393.00;;;375.67;;
3591;SDS011;1810;48.720;9.094;2023-04-24T10:18:35;490.73;;;466.10;;
3591;SDS011;1810;48.720;9.094;2023-04-24T10:21:04;594.20;;;553.17;;
3591;SDS011;1810;48.720;9.094;2023-04-24T10:23:33;399.35;;;381.83;;
3591;SDS011;1810;48.720;9.094;2023-04-24T10:26:05;412.70;;;394.13;;
3591;SDS011;1810;48.720;9.094;2023-04-24T10:28:34;455.77;;;434.52;;
3591;SDS011;1810;48.720;9.094;2023-04-24T10:31:04;418.92;;;399.67;;
3591;SDS011;1810;48.720;9.094;2023-04-24T10:33:32;393.30;;;375.70;;
3591;SDS011;1810;48.720;9.094;2023-04-24T10:36:01;430.20;;;410.33;;
3591;SDS011;1810;48.720;9.094;2023-04-24T10:38:30;354.52;;;339.35;;
3591;SDS011;1810;48.720;9.094;2023-04-24T10:41:07;445.23;;;424.17;;
3591;SDS011;1810;48.720;9.094;2023-04-24T10:43:42;529.53;;;500.85;;
3591;SDS011;1810;48.720;9.094;2023-04-24T10:46:10;350.35;;;335.40;;
3591;SDS011;1810;48.720;9.094;2023-04-24T10:48:52;500.02;;;474.83;;
3591;SDS011;1810;48.720;9.094;2023-04-24T10:51:22;405.08;;;386.90;;
3591;SDS011;1810;48.720;9.094;2023-04-24T10:53:52;481.17;;;458.55;;
3591;SDS011;1810;48.720;9.094;2023-04-24T10:56:21;500.75;;;476.40;;
3591;SDS011;1810;48.720;9.094;2023-04-24T10:58:50;476.63;;;452.85;;
3591;SDS011;1810;48.720;9.094;2023-04-24T11:01:23;347.73;;;333.08;;
3591;SDS011;1810;48.720;9.094;2023-04-24T11:03:54;485.08;;;461.33;;
3591;SDS011;1810;48.720;9.094;2023-04-24T11:06:30;554.40;;;526.10;;
3591;SDS011;1810;48.720;9.094;2023-04-24T11:09:01;475.08;;;451.23;;
3591;SDS011;1810;48.720;9.094;2023-04-24T11:11:34;415.97;;;396.93;;
3591;SDS011;1810;48.720;9.094;2023-04-24T11:14:06;403.35;;;385.42;;
3591;SDS011;1810;48.720;9.094;2023-04-24T11:16:38;456.35;;;435.08;;
3591;SDS011;1810;48.720;9.094;2023-04-24T11:19:17;505.85;;;481.48;;
3591;SDS011;1810;48.720;9.094;2023-04-24T11:21:54;497.80;;;474.02;;
3591;SDS011;1810;48.720;9.094;2023-04-24T11:24:32;416.58;;;397.73;;
3591;SDS011;1810;48.720;9.094;2023-04-24T11:27:12;372.27;;;356.05;;
3591;SDS011;1810;48.720;9.094;2023-04-24T11:29:43;394.88;;;377.05;;
3591;SDS011;1810;48.720;9.094;2023-04-24T11:32:17;442.70;;;422.13;;
3591;SDS011;1810;48.720;9.094;2023-04-24T11:34:47;363.50;;;348.00;;
3591;SDS011;1810;48.720;9.094;2023-04-24T11:37:16;366.10;;;350.40;;
3591;SDS011;1810;48.720;9.094;2023-04-24T11:39:45;338.60;;;324.15;;
3591;SDS011;1810;48.720;9.094;2023-04-24T11:42:15;501.30;;;475.05;;
3591;SDS011;1810;48.720;9.094;2023-04-24T11:44:44;476.73;;;453.73;;
3591;SDS011;1810;48.720;9.094;2023-04-24T11:47:13;484.33;;;461.05;;
3591;SDS011;1810;48.720;9.094;2023-04-24T11:49:42;552.75;;;523.50;;
3591;SDS011;1810;48.720;9.094;2023-04-24T11:52:11;500.27;;;475.83;;
3591;SDS011;1810;48.720;9.094;2023-04-24T11:54:50;438.70;;;418.63;;
3591;SDS011;1810;48.720;9.094;2023-04-24T11:57:20;425.20;;;405.42;;
3591;SDS011;1810;48.720;9.094;2023-04-24T11:59:49;583.90;;;551.53;;
3591;SDS011;1810;48.720;9.094;2023-04-24T12:02:21;382.10;;;365.13;;
3591;SDS011;1810;48.720;9.094;2023-04-24T12:04:51;382.17;;;365.25;;
3591;SDS011;1810;48.720;9.094;2023-04-24T12:07:20;424.63;;;404.08;;
3591;SDS011;1810;48.720;9.094;2023-04-24T12:09:54;358.00;;;342.33;;
3591;SDS011;1810;48.720;9.094;2023-04-24T12:12:26;532.90;;;503.85;;
3591;SDS011;1810;48.720;9.094;2023-04-24T12:14:55;526.72;;;500.35;;
3591;SDS011;1810;48.720;9.094;2023-04-24T12:17:25;716.72;;;673.38;;
3591;SDS011;1810;48.720;9.094;2023-04-24T12:19:57;581.05;;;549.83;;
3591;SDS011;1810;48.720;9.094;2023-04-24T12:22:27;434.90;;;415.05;;
3591;SDS011;1810;48.720;9.094;2023-04-24T12:24:56;596.25;;;560.70;;
3591;SDS011;1810;48.720;9.094;2023-04-24T12:27:28;395.15;;;377.73;;
3591;SDS011;1810;48.720;9.094;2023-04-24T12:29:57;449.52;;;428.15;;
3591;SDS011;1810;48.720;9.094;2023-04-24T12:32:26;443.10;;;422.75;;
3591;SDS011;1810;48.720;9.094;2023-04-24T12:34:55;433.02;;;412.98;;
3591;SDS011;1810;48.720;9.094;2023-04-24T12:37:24;380.88;;;364.00;;
3591;SDS011;1810;48.720;9.094;2023-04-24T12:40:00;510.40;;;484.42;;
3591;SDS011;1810;48.720;9.094;2023-04-24T12:42:31;352.98;;;337.98;;
3591;SDS011;1810;48.720;9.094;2023-04-24T12:45:03;477.38;;;454.40;;
3591;SDS011;1810;48.720;9.094;2023-04-24T12:47:33;531.75;;;504.63;;
3591;SDS011;1810;48.720;9.094;2023-04-24T12:50:02;489.42;;;465.85;;
3591;SDS011;1810;48.720;9.094;2023-04-24T12:52:32;453.58;;;432.63;;
3591;SDS011;1810;48.720;9.094;2023-04-24T12:55:01;533.92;;;507.25;;
3591;SDS011;1810;48.720;9.094;2023-04-24T12:57:34;690.05;;;649.85;;
3591;SDS011;1810;48.720;9.094;2023-04-24T13:00:04;540.88;;;512.80;;
3591;SDS011;1810;48.720;9.094;2023-04-24T13:02:34;481.92;;;458.80;;
3591;SDS011;1810;48.720;9.094;2023-04-24T13:05:03;505.33;;;480.92;;
3591;SDS011;1810;48.720;9.094;2023-04-24T13:07:32;586.08;;;555.60;;
3591;SDS011;1810;48.720;9.094;2023-04-24T13:10:01;561.03;;;531.40;;
3591;SDS011;1810;48.720;9.094;2023-04-24T13:12:29;513.05;;;487.30;;
3591;SDS011;1810;48.720;9.094;2023-04-24T13:14:59;514.72;;;489.38;;
3591;SDS011;1810;48.720;9.094;2023-04-24T13:17:27;583.08;;;552.88;;
3591;SDS011;1810;48.720;9.094;2023-04-24T13:19:56;520.67;;;494.63;;
3591;SDS011;1810;48.720;9.094;2023-04-24T13:22:24;615.72;;;582.72;;
3591;SDS011;1810;48.720;9.094;2023-04-24T13:24:53;734.60;;;689.60;;
3591;SDS011;1810;48.720;9.094;2023-04-24T13:27:22;759.65;;;712.63;;
3591;SDS011;1810;48.720;9.094;2023-04-24T13:29:50;642.97;;;606.78;;
3591;SDS011;1810;48.720;9.094;2023-04-24T13:32:20;622.65;;;588.83;;
3591;SDS011;1810;48.720;9.094;2023-04-24T13:34:49;670.25;;;631.45;;
3591;SDS011;1810;48.720;9.094;2023-04-24T13:37:17;567.15;;;537.60;;
3591;SDS011;1810;48.720;9.094;2023-04-24T13:39:45;836.13;;;777.45;;
3591;SDS011;1810;48.720;9.094;2023-04-24T13:42:14;672.13;;;633.28;;
3591;SDS011;1810;48.720;9.094;2023-04-24T13:44:42;657.65;;;619.78;;
3591;SDS011;1810;48.720;9.094;2023-04-24T13:47:11;683.78;;;644.20;;
3591;SDS011;1810;48.720;9.094;2023-04-24T13:49:40;636.35;;;600.83;;
3591;SDS011;1810;48.720;9.094;2023-04-24T13:52:09;560.63;;;531.58;;
3591;SDS011;1810;48.720;9.094;2023-04-24T13:54:37;620.25;;;584.83;;
3591;SDS011;1810;48.720;9.094;2023-04-24T13:57:06;572.80;;;543.38;;
3591;SDS011;1810;48.720;9.094;2023-04-24T13:59:34;655.08;;;618.15;;
3591;SDS011;1810;48.720;9.094;2023-04-24T14:02:08;611.40;;;578.60;;
3591;SDS011;1810;48.720;9.094;2023-04-24T14:04:37;516.67;;;491.10;;
3591;SDS011;1810;48.720;9.094;2023-04-24T14:07:14;546.90;;;519.25;;
3591;SDS011;1810;48.720;9.094;2023-04-24T14:09:52;711.00;;;668.17;;
3591;SDS011;1810;48.720;9.094;2023-04-24T14:12:21;554.92;;;527.03;;
3591;SDS011;1810;48.720;9.094;2023-04-24T14:14:52;541.08;;;514.25;;
3591;SDS011;1810;48.720;9.094;2023-04-24T14:17:30;572.88;;;542.90;;
3591;SDS011;1810;48.720;9.094;2023-04-24T14:20:12;531.10;;;504.70;;
3591;SDS011;1810;48.720;9.094;2023-04-24T14:22:41;667.25;;;628.45;;
3591;SDS011;1810;48.720;9.094;2023-04-24T14:25:10;604.92;;;572.45;;
3591;SDS011;1810;48.720;9.094;2023-04-24T14:27:38;529.13;;;502.70;;
3591;SDS011;1810;48.720;9.094;2023-04-24T14:30:07;680.10;;;640.47;;
3591;SDS011;1810;48.720;9.094;2023-04-24T14:32:37;663.45;;;625.05;;
3591;SDS011;1810;48.720;9.094;2023-04-24T14:35:08;702.58;;;659.75;;